This is the latest recevied weather packets stored in our database for station/object E23XBQ-1. If no packets are shown the sender has not sent any weather packets the latest 10 day(s).
| Time | Temp. | Humidity | Pressure | Rain* | Wind** | Luminosity | Snow |
|---|---|---|---|---|---|---|---|
| 1777412508 | 23.33° C | 93% | 971 hPa | - | - | 0 W/m² | - |
| 1777412483 | 23.33° C | 91% | 971 hPa | - | - | 0 W/m² | - |
| 1777411857 | 23.89° C | 92% | 971 hPa | - | - | 0 W/m² | - |
| 1777411233 | 23.89° C | 87% | 971 hPa | - | - | 0 W/m² | - |
| 1777410608 | 23.89° C | 85% | 971 hPa | - | - | 0 W/m² | - |
| 1777409983 | 23.89° C | 87% | 971 hPa | - | - | 0 W/m² | - |
| 1777409358 | 23.89° C | 88% | 971 hPa | - | - | 0 W/m² | - |
| 1777408732 | 23.89° C | 87% | 971 hPa | - | - | 0 W/m² | - |
| 1777408107 | 23.89° C | 88% | 971 hPa | - | - | 0 W/m² | - |
| 1777407481 | 23.89° C | 90% | 971 hPa | - | - | 0 W/m² | - |
| 1777406856 | 23.33° C | 92% | 971 hPa | - | - | 0 W/m² | - |
| 1777406232 | 23.89° C | 87% | 971 hPa | - | - | 0 W/m² | - |
| 1777405605 | 23.89° C | 91% | 971 hPa | - | - | 0 W/m² | - |
| 1777404981 | 23.89° C | 85% | 971 hPa | - | - | 0 W/m² | - |
| 1777404356 | 23.89° C | 89% | 971 hPa | - | - | 0 W/m² | - |
| 1777403731 | 23.89° C | 86% | 971 hPa | - | - | 0 W/m² | - |
| 1777403106 | 24.44° C | 82% | 971 hPa | - | - | 0 W/m² | - |
| 1777402482 | 25.56° C | 74% | 971 hPa | - | - | 0 W/m² | - |
| 1777401857 | 25° C | 79% | 971 hPa | - | - | 0 W/m² | - |
| 1777401232 | 25° C | 75% | 971 hPa | - | - | 0 W/m² | - |
| 1777400607 | 25° C | 78% | 971 hPa | - | - | 0 W/m² | - |
| 1777399983 | 24.44° C | 80% | 971 hPa | - | - | 0 W/m² | - |
| 1777399358 | 24.44° C | 79% | 972 hPa | - | - | 0 W/m² | - |
| 1777398733 | 24.44° C | 80% | 972 hPa | - | - | 0 W/m² | - |
| 1777398108 | 25° C | 79% | 972 hPa | - | - | 0 W/m² | - |
* Rain since midnight (hover to see other rain measurements)
** Current wind speed in m/s (hover to see current wind gust speed)